Time;durP1;ratioP1;P1;durP2;ratioP2;P2;SDS_P1;SDS_P2;PMS_P1;PMS_P2;Temp;Humidity;BMP_temperature;BMP_pressure;BME280_temperature;BME280_humidity;BME280_pressure;Samples;Min_cycle;Max_cycle;Signal;HPM_P1;HPM_P2
2023/11/24 00:01:00;;;;;;;;;;;;;;;-144.99;100.00;67352.69;5103116;28;19919;-80
2023/11/24 00:03:25;;;;;;;;;;;;;;;-144.99;100.00;67352.69;5103022;28;19912;-80
2023/11/24 00:05:50;;;;;;;;;;;;;;;-144.99;100.00;67352.69;5103812;28;19912;-80
2023/11/24 00:08:15;;;;;;;;;;;;;;;-144.99;100.00;67352.69;5101949;28;19989;-80
2023/11/24 00:10:43;;;;;;;;;;;;;;;-144.99;100.00;67352.69;5100277;28;19916;-80
2023/11/24 00:13:09;;;;;;;;;;;;;;;-144.99;100.00;67352.69;5092090;28;19964;-80
2023/11/24 00:15:36;;;;;;;;;;;;;;;-144.99;100.00;67352.69;5081753;28;20074;-80
2023/11/24 00:18:02;;;;;;;;;;;;;;;-144.99;100.00;67352.69;5080735;28;20329;-80
2023/11/24 00:20:27;;;;;;;;;;;;;;;-144.99;100.00;67352.69;5099843;28;19985;-80
2023/11/24 00:22:53;;;;;;;;;;;;;;;-144.99;100.00;67352.69;5091924;28;19912;-80
2023/11/24 00:25:18;;;;;;;;;;;;;;;-144.99;100.00;67352.69;5099895;28;19920;-80
2023/11/24 00:27:43;;;;;;;;;;;;;;;-144.99;100.00;67352.69;5099706;28;19924;-80
2023/11/24 00:30:08;;;;;;;;;;;;;;;-144.99;100.00;67352.69;5081014;28;19912;-80
2023/11/24 00:32:34;;;;;;;;;;;;;;;-144.99;100.00;67352.69;5090632;28;20229;-80
2023/11/24 00:35:00;;;;;;;;;;;;;;;-144.99;100.00;67352.69;5098433;28;20276;-80
2023/11/24 00:37:25;;;;;;;;;;;;;;;-144.99;100.00;67352.69;5096456;28;20330;-80
2023/11/24 00:39:50;;;;;;;;;;;;;;;-144.99;100.00;67352.69;5087673;28;20206;-79
2023/11/24 00:42:16;;;;;;;;;;;;;;;-144.99;100.00;67352.69;5097899;28;19919;-80
2023/11/24 00:44:41;;;;;;;;;;;;;;;-144.99;100.00;67352.69;5091360;28;19912;-80
2023/11/24 00:47:07;;;;;;;;;;;;;;;-144.99;100.00;67352.69;5099486;28;19922;-80
2023/11/24 00:49:33;;;;;;;;;;;;;;;-144.99;100.00;67352.69;5099272;28;19916;-80
2023/11/24 00:51:58;;;;;;;;;;;;;;;-144.99;100.00;67352.69;5099417;28;19922;-80
2023/11/24 00:54:23;;;;;;;;;;;;;;;-144.99;100.00;67352.69;5101493;28;20220;-80
2023/11/24 00:56:48;;;;;;;;;;;;;;;-144.99;100.00;67352.69;5102650;28;19912;-80
2023/11/24 00:59:13;;;;;;;;;;;;;;;-144.99;100.00;67352.69;5101919;28;20400;-79
2023/11/24 01:01:39;;;;;;;;;;;;;;;-144.99;100.00;67352.69;5082108;28;20010;-80
2023/11/24 01:04:04;;;;;;;;;;;;;;;-144.99;100.00;67352.69;5082453;28;19914;-79
2023/11/24 01:06:30;;;;;;;;;;;;;;;-144.99;100.00;67352.69;5100777;28;19916;-79
2023/11/24 01:08:55;;;;;;;;;;;;;;;-144.99;100.00;67352.69;5099421;28;19922;-79
2023/11/24 01:11:20;;;;;;;;;;;;;;;-144.99;100.00;67352.69;5100406;28;19912;-79
2023/11/24 01:13:46;;;;;;;;;;;;;;;-144.99;100.00;67352.69;5081739;28;19967;-79
2023/11/24 01:16:11;;;;;;;;;;;;;;;-144.99;100.00;67352.69;5101267;28;20389;-80
2023/11/24 01:18:37;;;;;;;;;;;;;;;-144.99;100.00;67352.69;5101447;28;19912;-80
2023/11/24 01:21:03;;;;;;;;;;;;;;;-144.99;100.00;67352.69;5094874;28;19916;-80
2023/11/24 01:23:28;;;;;;;;;;;;;;;-144.99;100.00;67352.69;5102399;28;19933;-80
2023/11/24 01:25:54;;;;;;;;;;;;;;;-144.99;100.00;67352.69;5103186;28;20269;-80
2023/11/24 01:28:19;;;;;;;;;;;;;;;-144.99;100.00;67352.69;5102875;28;19936;-80
2023/11/24 01:30:45;;;;;;;;;;;;;;;-144.99;100.00;67352.69;5103042;28;20049;-80
2023/11/24 01:33:10;;;;;;;;;;;;;;;-144.99;100.00;67352.69;5103097;28;19926;-80
2023/11/24 01:35:35;;;;;;;;;;;;;;;-144.99;100.00;67352.69;5103029;28;19980;-80
2023/11/24 01:38:01;;;;;;;;;;;;;;;-144.99;100.00;67352.69;5102903;28;19912;-80
2023/11/24 01:40:26;;;;;;;;;;;;;;;-144.99;100.00;67352.69;5084592;28;19976;-79
2023/11/24 01:42:51;;;;;;;;;;;;;;;-144.99;100.00;67352.69;5102851;28;19912;-80
2023/11/24 01:45:16;;;;;;;;;;;;;;;-144.99;100.00;67352.69;5094721;28;19912;-80
2023/11/24 01:47:42;;;;;;;;;;;;;;;-144.99;100.00;67352.69;5102362;28;20377;-80
2023/11/24 01:50:07;;;;;;;;;;;;;;;-144.99;100.00;67352.69;5103211;28;19916;-80
2023/11/24 01:52:34;;;;;;;;;;;;;;;-144.99;100.00;67352.69;5102625;28;19912;-80
2023/11/24 01:55:00;;;;;;;;;;;;;;;-144.99;100.00;67352.69;5084062;28;19948;-80
2023/11/24 01:57:25;;;;;;;;;;;;;;;-144.99;100.00;67352.69;5084419;28;19919;-80
2023/11/24 01:59:51;;;;;;;;;;;;;;;-144.99;100.00;67352.69;5102756;28;19913;-80
2023/11/24 02:02:20;;;;;;;;;;;;;;;-144.99;100.00;67352.69;5102593;28;19935;-80
2023/11/24 02:04:45;;;;;;;;;;;;;;;-144.99;100.00;67352.69;5084173;28;19912;-80
2023/11/24 02:07:11;;;;;;;;;;;;;;;-144.99;100.00;67352.69;5083196;28;19912;-80
2023/11/24 02:09:37;;;;;;;;;;;;;;;-144.99;100.00;67352.69;5102080;28;19916;-80
2023/11/24 02:12:02;;;;;;;;;;;;;;;-144.99;100.00;67352.69;5102378;28;19912;-80
2023/11/24 02:14:28;;;;;;;;;;;;;;;-144.99;100.00;67352.69;5102022;28;19916;-80
2023/11/24 02:16:53;;;;;;;;;;;;;;;-144.99;100.00;67352.69;5101700;28;19923;-80
2023/11/24 02:19:18;;;;;;;;;;;;;;;-144.99;100.00;67352.69;5101563;28;19912;-80
2023/11/24 02:21:44;;;;;;;;;;;;;;;-144.99;100.00;67352.69;5102515;28;19952;-80
2023/11/24 02:24:09;;;;;;;;;;;;;;;-144.99;100.00;67352.69;5101172;28;19912;-80
2023/11/24 02:26:34;;;;;;;;;;;;;;;-144.99;100.00;67352.69;5082369;28;19919;-80
2023/11/24 02:28:59;;;;;;;;;;;;;;;-144.99;100.00;67352.69;5094319;28;19923;-80
2023/11/24 02:31:25;;;;;;;;;;;;;;;-144.99;100.00;67352.69;5083331;28;20007;-80
2023/11/24 02:33:51;;;;;;;;;;;;;;;-144.99;100.00;67352.69;5077008;28;19972;-80
2023/11/24 02:36:20;;;;;;;;;;;;;;;-144.99;100.00;67352.69;5100563;28;19912;-80
2023/11/24 02:38:49;;;;;;;;;;;;;;;-144.99;100.00;67352.69;5101469;28;19912;-80
2023/11/24 02:41:15;;;;;;;;;;;;;;;-144.99;100.00;67352.69;5102003;28;20431;-80
2023/11/24 02:43:40;;;;;;;;;;;;;;;-144.99;100.00;67352.69;5100950;28;19912;-80
2023/11/24 02:46:05;;;;;;;;;;;;;;;-144.99;100.00;67352.69;5100474;28;19916;-80
2023/11/24 02:48:31;;;;;;;;;;;;;;;-144.99;100.00;67352.69;5101433;28;19923;-80
2023/11/24 02:50:56;;;;;;;;;;;;;;;-144.99;100.00;67352.69;5101501;28;19919;-80
2023/11/24 02:53:22;;;;;;;;;;;;;;;-144.99;100.00;67352.69;5101930;28;19952;-80
2023/11/24 02:55:47;;;;;;;;;;;;;;;-144.99;100.00;67352.69;5099812;28;19970;-80
2023/11/24 02:58:12;;;;;;;;;;;;;;;-144.99;100.00;67352.69;5105770;28;19912;-80
2023/11/24 03:00:38;;;;;;;;;;;;;;;-144.99;100.00;67352.69;5105114;28;19923;-80
2023/11/24 03:03:04;;;;;;;;;;;;;;;-144.99;100.00;67352.69;5105937;28;19912;-80
2023/11/24 03:05:29;;;;;;;;;;;;;;;-144.99;100.00;67352.69;5087100;28;19918;-80
2023/11/24 03:07:54;;;;;;;;;;;;;;;-144.99;100.00;67352.69;5105804;28;20353;-80
2023/11/24 03:10:20;;;;;;;;;;;;;;;-144.99;100.00;67352.69;5105883;28;19912;-80
2023/11/24 03:12:45;;;;;;;;;;;;;;;-144.99;100.00;67352.69;5119831;22;19916;-80
2023/11/24 03:15:11;;;;;;;;;;;;;;;-144.99;100.00;67352.69;5090044;28;20479;-80
2023/11/24 03:17:36;;;;;;;;;;;;;;;-144.99;100.00;67352.69;5066759;28;20007;-79
2023/11/24 03:20:01;;;;;;;;;;;;;;;-144.99;100.00;67352.69;5081073;28;19913;-83
2023/11/24 03:22:27;;;;;;;;;;;;;;;-144.99;100.00;67352.69;5067047;28;20383;-81
2023/11/24 03:24:52;;;;;;;;;;;;;;;-144.99;100.00;67352.69;5063387;28;19995;-80
2023/11/24 03:27:17;;;;;;;;;;;;;;;-144.99;100.00;67352.69;5076864;28;19912;-81
2023/11/24 03:29:43;;;;;;;;;;;;;;;-144.99;100.00;67352.69;5058607;28;19919;-81
2023/11/24 03:32:08;;;;;;;;;;;;;;;-144.99;100.00;67352.69;5076448;28;20418;-81
2023/11/24 03:34:33;;;;;;;;;;;;;;;-144.99;100.00;67352.69;5076234;28;19912;-81
2023/11/24 03:36:58;;;;;;;;;;;;;;;-144.99;100.00;67352.69;5068581;28;19916;-79
2023/11/24 03:39:24;;;;;;;;;;;;;;;-144.99;100.00;67352.69;5059168;28;19912;-82
2023/11/24 03:41:49;;;;;;;;;;;;;;;-144.99;100.00;67352.69;5076571;28;19920;-81
2023/11/24 03:44:14;;;;;;;;;;;;;;;-144.99;100.00;67352.69;5057997;28;19919;-82
2023/11/24 03:46:40;;;;;;;;;;;;;;;-144.99;100.00;67352.69;5076782;28;19920;-80
2023/11/24 03:49:06;;;;;;;;;;;;;;;-144.99;100.00;67352.69;5076288;28;20272;-80
2023/11/24 03:51:32;;;;;;;;;;;;;;;-144.99;100.00;67352.69;5059893;28;19926;-82
2023/11/24 03:53:58;;;;;;;;;;;;;;;-144.99;100.00;67352.69;5071343;28;19973;-82
2023/11/24 03:56:23;;;;;;;;;;;;;;;-144.99;100.00;67352.69;5086778;28;19920;-83
2023/11/24 03:58:49;;;;;;;;;;;;;;;-144.99;100.00;67352.69;5082379;28;19919;-83
2023/11/24 04:01:14;;;;;;;;;;;;;;;-144.99;100.00;67352.69;5063557;28;19913;-83
2023/11/24 04:03:44;;;;;;;;;;;;;;;-144.99;100.00;67352.69;5062815;28;20380;-83
2023/11/24 04:06:09;;;;;;;;;;;;;;;-144.99;100.00;67352.69;5062468;28;19916;-82
2023/11/24 04:08:34;;;;;;;;;;;;;;;-144.99;100.00;67352.69;5062905;28;19913;-84
2023/11/24 04:11:00;;;;;;;;;;;;;;;-144.99;100.00;67352.69;5080350;28;20007;-83
2023/11/24 04:13:25;;;;;;;;;;;;;;;-144.99;100.00;67352.69;5079992;28;20267;-84
2023/11/24 04:15:50;;;;;;;;;;;;;;;-144.99;100.00;67352.69;5061877;28;20418;-84
2023/11/24 04:18:15;;;;;;;;;;;;;;;-144.99;100.00;67352.69;5062431;28;19983;-85
2023/11/24 04:20:40;;;;;;;;;;;;;;;-144.99;100.00;67352.69;5079991;28;19916;-84
2023/11/24 04:23:07;;;;;;;;;;;;;;;-144.99;100.00;67352.69;5061185;28;19912;-84
2023/11/24 04:25:32;;;;;;;;;;;;;;;-144.99;100.00;67352.69;5078771;28;20145;-81
2023/11/24 04:27:57;;;;;;;;;;;;;;;-144.99;100.00;67352.69;5077876;28;19913;-83
2023/11/24 04:30:22;;;;;;;;;;;;;;;-144.99;100.00;67352.69;5060646;28;19921;-81
2023/11/24 04:32:47;;;;;;;;;;;;;;;-144.99;100.00;67352.69;5060519;28;19912;-84
2023/11/24 04:35:13;;;;;;;;;;;;;;;-144.99;100.00;67352.69;5060405;28;19935;-84
2023/11/24 04:37:38;;;;;;;;;;;;;;;-144.99;100.00;67352.69;5060233;28;20007;-82
2023/11/24 04:40:03;;;;;;;;;;;;;;;-144.99;100.00;67352.69;5060474;28;19955;-82
2023/11/24 04:42:29;;;;;;;;;;;;;;;-144.99;100.00;67352.69;5078128;28;20332;-81
2023/11/24 04:44:55;;;;;;;;;;;;;;;-144.99;100.00;67352.69;5059634;28;20030;-83
2023/11/24 04:47:21;;;;;;;;;;;;;;;-144.99;100.00;67352.69;5059382;28;19919;-83
2023/11/24 04:49:46;;;;;;;;;;;;;;;-144.99;100.00;67352.69;5058199;28;19987;-83
2023/11/24 04:52:12;;;;;;;;;;;;;;;-144.99;100.00;67352.69;5059229;28;20010;-82
2023/11/24 04:54:38;;;;;;;;;;;;;;;-144.99;100.00;67352.69;5077982;28;19920;-84
2023/11/24 04:57:05;;;;;;;;;;;;;;;-144.99;100.00;67352.69;5077334;28;19916;-84
2023/11/24 04:59:31;;;;;;;;;;;;;;;-144.99;100.00;67352.69;5059838;28;20391;-84
2023/11/24 05:01:56;;;;;;;;;;;;;;;-144.99;100.00;67352.69;5059840;28;20291;-83
2023/11/24 05:04:22;;;;;;;;;;;;;;;-144.99;100.00;67352.69;5059554;28;19919;-83
2023/11/24 05:06:47;;;;;;;;;;;;;;;-144.99;100.00;67352.69;5077019;28;20066;-84
2023/11/24 05:09:12;;;;;;;;;;;;;;;-144.99;100.00;67352.69;5059252;28;19913;-82
2023/11/24 05:11:38;;;;;;;;;;;;;;;-144.99;100.00;67352.69;5076816;28;20002;-84
2023/11/24 05:14:03;;;;;;;;;;;;;;;-144.99;100.00;67352.69;5058231;28;19916;-84
2023/11/24 05:16:29;;;;;;;;;;;;;;;-144.99;100.00;67352.69;5058088;28;19958;-84
2023/11/24 05:18:54;;;;;;;;;;;;;;;-144.99;100.00;67352.69;5058377;28;20011;-84
2023/11/24 05:21:19;;;;;;;;;;;;;;;-144.99;100.00;67352.69;5058396;28;19912;-82
2023/11/24 05:23:44;;;;;;;;;;;;;;;-144.99;100.00;67352.69;5057874;28;19938;-81
2023/11/24 05:26:10;;;;;;;;;;;;;;;-144.99;100.00;67352.69;5075791;28;20434;-82
2023/11/24 05:28:35;;;;;;;;;;;;;;;-144.99;100.00;67352.69;5057617;28;19919;-84
2023/11/24 05:31:03;;;;;;;;;;;;;;;-144.99;100.00;67352.69;5058139;28;19974;-84
2023/11/24 05:33:28;;;;;;;;;;;;;;;-144.99;100.00;67352.69;5057466;28;19919;-82
2023/11/24 05:35:56;;;;;;;;;;;;;;;-144.99;100.00;67352.69;5057975;28;19912;-83
2023/11/24 05:38:21;;;;;;;;;;;;;;;-144.99;100.00;67352.69;5075350;28;20332;-81
2023/11/24 05:40:46;;;;;;;;;;;;;;;-144.99;100.00;67352.69;5058004;28;19913;-83
2023/11/24 05:43:13;;;;;;;;;;;;;;;-144.99;100.00;67352.69;5057993;28;20364;-84
2023/11/24 05:45:38;;;;;;;;;;;;;;;-144.99;100.00;67352.69;5075163;28;19913;-84
2023/11/24 05:48:03;;;;;;;;;;;;;;;-144.99;100.00;67352.69;5075572;28;19958;-81
2023/11/24 05:50:29;;;;;;;;;;;;;;;-144.99;100.00;67352.69;5057191;28;19917;-83
2023/11/24 05:52:54;;;;;;;;;;;;;;;-144.99;100.00;67352.69;5057666;28;19939;-82
2023/11/24 05:55:19;;;;;;;;;;;;;;;-144.99;100.00;67352.69;5075082;28;19916;-84
2023/11/24 05:57:44;;;;;;;;;;;;;;;-144.99;100.00;67352.69;5075341;28;19923;-83
2023/11/24 06:00:10;;;;;;;;;;;;;;;-144.99;100.00;67352.69;5075522;28;19962;-82
2023/11/24 06:02:35;;;;;;;;;;;;;;;-144.99;100.00;67352.69;5075080;28;19948;-83
2023/11/24 06:05:02;;;;;;;;;;;;;;;-144.99;100.00;67352.69;5056492;28;19916;-82
2023/11/24 06:07:28;;;;;;;;;;;;;;;-144.99;100.00;67352.69;5074640;28;20415;-82
2023/11/24 06:09:54;;;;;;;;;;;;;;;-144.99;100.00;67352.69;5056698;28;19924;-83
2023/11/24 06:12:19;;;;;;;;;;;;;;;-144.99;100.00;67352.69;5056447;28;20264;-82
2023/11/24 06:14:44;;;;;;;;;;;;;;;-144.99;100.00;67352.69;5072990;28;19924;-82
2023/11/24 06:17:09;;;;;;;;;;;;;;;-144.99;100.00;67352.69;5072921;28;19913;-83
2023/11/24 06:19:34;;;;;;;;;;;;;;;-144.99;100.00;67352.69;5054946;28;19912;-81
2023/11/24 06:22:00;;;;;;;;;;;;;;;-144.99;100.00;67352.69;5073379;28;20398;-83
2023/11/24 06:24:25;;;;;;;;;;;;;;;-144.99;100.00;67352.69;5072766;28;19975;-81
2023/11/24 06:26:50;;;;;;;;;;;;;;;-144.99;100.00;67352.69;5072599;28;20170;-81
2023/11/24 06:29:15;;;;;;;;;;;;;;;-144.99;100.00;67352.69;5054979;28;19952;-82
2023/11/24 06:31:41;;;;;;;;;;;;;;;-144.99;100.00;67352.69;5073092;28;19924;-82
2023/11/24 06:34:07;;;;;;;;;;;;;;;-144.99;100.00;67352.69;5072963;28;19948;-82
2023/11/24 06:36:32;;;;;;;;;;;;;;;-144.99;100.00;67352.69;5054590;28;19920;-82
2023/11/24 06:38:57;;;;;;;;;;;;;;;-144.99;100.00;67352.69;5073248;28;19913;-81
2023/11/24 06:41:23;;;;;;;;;;;;;;;-144.99;100.00;67352.69;5072659;28;20949;-83
2023/11/24 06:43:48;;;;;;;;;;;;;;;-144.99;100.00;67352.69;5072910;28;20314;-83
2023/11/24 06:46:14;;;;;;;;;;;;;;;-144.99;100.00;67352.69;5054960;28;19912;-82
2023/11/24 06:48:39;;;;;;;;;;;;;;;-144.99;100.00;67352.69;5055252;28;19912;-82
2023/11/24 06:51:05;;;;;;;;;;;;;;;-144.99;100.00;67352.69;5073502;28;19916;-84
2023/11/24 06:53:30;;;;;;;;;;;;;;;-144.99;100.00;67352.69;5073584;28;19948;-83
2023/11/24 06:55:55;;;;;;;;;;;;;;;-144.99;100.00;67352.69;5073122;28;19974;-83
2023/11/24 06:58:20;;;;;;;;;;;;;;;-144.99;100.00;67352.69;5073053;28;20329;-82
2023/11/24 07:00:48;;;;;;;;;;;;;;;-144.99;100.00;67352.69;5073506;28;20371;-83
2023/11/24 07:03:14;;;;;;;;;;;;;;;-144.99;100.00;67352.69;5072802;28;19943;-82
2023/11/24 07:05:39;;;;;;;;;;;;;;;-144.99;100.00;67352.69;5055404;28;19912;-83
2023/11/24 07:08:05;;;;;;;;;;;;;;;-144.99;100.00;67352.69;5055083;28;19913;-80
2023/11/24 07:10:30;;;;;;;;;;;;;;;-144.99;100.00;67352.69;5073280;28;19916;-83
2023/11/24 07:12:55;;;;;;;;;;;;;;;-144.99;100.00;67352.69;5073804;28;20461;-82
2023/11/24 07:15:21;;;;;;;;;;;;;;;-144.99;100.00;67352.69;5055665;28;19916;-81
2023/11/24 07:17:46;;;;;;;;;;;;;;;-144.99;100.00;67352.69;5055285;28;19913;-83
2023/11/24 07:20:11;;;;;;;;;;;;;;;-144.99;100.00;67352.69;5055259;28;19923;-83
2023/11/24 07:22:37;;;;;;;;;;;;;;;-144.99;100.00;67352.69;5072947;28;19913;-82
2023/11/24 07:25:02;;;;;;;;;;;;;;;-144.99;100.00;67352.69;5054691;28;19962;-82
2023/11/24 07:27:28;;;;;;;;;;;;;;;-144.99;100.00;67352.69;5072986;28;20345;-82
2023/11/24 07:29:53;;;;;;;;;;;;;;;-144.99;100.00;67352.69;5074002;28;19951;-83
2023/11/24 07:32:19;;;;;;;;;;;;;;;-144.99;100.00;67352.69;5073491;28;20389;-83
2023/11/24 07:34:45;;;;;;;;;;;;;;;-144.99;100.00;67352.69;5056073;28;19936;-83
2023/11/24 07:37:10;;;;;;;;;;;;;;;-144.99;100.00;67352.69;5073663;28;19920;-82
2023/11/24 07:39:36;;;;;;;;;;;;;;;-144.99;100.00;67352.69;5059645;28;20381;-80
2023/11/24 07:42:02;;;;;;;;;;;;;;;-144.99;100.00;67352.69;5079102;28;19913;-82
2023/11/24 07:44:30;;;;;;;;;;;;;;;-144.99;100.00;67352.69;5059475;28;19917;-82
2023/11/24 07:46:55;;;;;;;;;;;;;;;-144.99;100.00;67352.69;5059398;28;19934;-83
2023/11/24 07:49:20;;;;;;;;;;;;;;;-144.99;100.00;67352.69;5077278;28;19912;-81
2023/11/24 07:51:45;;;;;;;;;;;;;;;-144.99;100.00;67352.69;5059710;28;19916;-84
2023/11/24 07:54:11;;;;;;;;;;;;;;;-144.99;100.00;67352.69;5071062;28;20393;-83
2023/11/24 07:56:36;;;;;;;;;;;;;;;-144.99;100.00;67352.69;5073537;28;19917;-82
2023/11/24 07:59:01;;;;;;;;;;;;;;;-144.99;100.00;67352.69;5074413;28;19920;-81
2023/11/24 08:01:26;;;;;;;;;;;;;;;-144.99;100.00;67352.69;5078063;28;19912;-82
2023/11/24 08:03:52;;;;;;;;;;;;;;;-144.99;100.00;67352.69;5059146;28;19935;-84
2023/11/24 08:06:18;;;;;;;;;;;;;;;-144.99;100.00;67352.69;5060304;28;20004;-83
2023/11/24 08:08:43;;;;;;;;;;;;;;;-144.99;100.00;67352.69;5077265;28;19912;-83
2023/11/24 08:11:08;;;;;;;;;;;;;;;-144.99;100.00;67352.69;5059428;28;19920;-81
2023/11/24 08:13:34;;;;;;;;;;;;;;;-144.99;100.00;67352.69;5058336;28;20375;-81
2023/11/24 08:16:02;;;;;;;;;;;;;;;-144.99;100.00;67352.69;5058604;28;20361;-82
2023/11/24 08:18:27;;;;;;;;;;;;;;;-144.99;100.00;67352.69;5058301;28;19919;-82
2023/11/24 08:20:52;;;;;;;;;;;;;;;-144.99;100.00;67352.69;5076664;28;20299;-82
2023/11/24 08:23:18;;;;;;;;;;;;;;;-144.99;100.00;67352.69;5051246;28;19917;-80
2023/11/24 08:25:43;;;;;;;;;;;;;;;-144.99;100.00;67352.69;5057455;28;19939;-81
2023/11/24 08:28:11;;;;;;;;;;;;;;;-144.99;100.00;67352.69;5057626;28;20007;-82
2023/11/24 08:30:36;;;;;;;;;;;;;;;-144.99;100.00;67352.69;5075764;28;19913;-82
2023/11/24 08:33:01;;;;;;;;;;;;;;;-144.99;100.00;67352.69;5058081;28;19973;-82
2023/11/24 08:35:26;;;;;;;;;;;;;;;-144.99;100.00;67352.69;5072027;28;19950;-81
2023/11/24 08:37:51;;;;;;;;;;;;;;;-144.99;100.00;67352.69;5063506;28;20370;-82
2023/11/24 08:40:17;;;;;;;;;;;;;;;-144.99;100.00;67352.69;5075370;28;19912;-83
2023/11/24 08:42:43;;;;;;;;;;;;;;;-144.99;100.00;67352.69;5063713;28;19913;-83
2023/11/24 08:45:09;;;;;;;;;;;;;;;-144.99;100.00;67352.69;5081738;28;19919;-84
2023/11/24 08:47:34;;;;;;;;;;;;;;;-144.99;100.00;67352.69;5080945;28;19999;-84
2023/11/24 08:49:59;;;;;;;;;;;;;;;-144.99;100.00;67352.69;5080412;28;19995;-84
2023/11/24 08:52:25;;;;;;;;;;;;;;;-144.99;100.00;67352.69;5073081;28;19916;-84
2023/11/24 08:54:51;;;;;;;;;;;;;;;-144.99;100.00;67352.69;5075994;28;19943;-83
2023/11/24 08:57:16;;;;;;;;;;;;;;;-144.99;100.00;67352.69;5062341;28;20026;-82
2023/11/24 08:59:42;;;;;;;;;;;;;;;-144.99;100.00;67352.69;5062192;28;19921;-84
2023/11/24 09:02:08;;;;;;;;;;;;;;;-144.99;100.00;67352.69;5061507;28;19920;-84
2023/11/24 09:04:33;;;;;;;;;;;;;;;-144.99;100.00;67352.69;5061434;28;19912;-84
2023/11/24 09:06:58;;;;;;;;;;;;;;;-144.99;100.00;67352.69;5060617;28;20337;-84
2023/11/24 09:09:24;;;;;;;;;;;;;;;-144.99;100.00;67352.69;5074805;28;19934;-84
2023/11/24 09:11:49;;;;;;;;;;;;;;;-144.99;100.00;67352.69;5091149;28;19995;-83
2023/11/24 09:14:15;;;;;;;;;;;;;;;-144.99;100.00;67352.69;5069113;22;19948;-88
2023/11/24 09:16:40;;;;;;;;;;;;;;;-144.99;100.00;67352.69;5033070;28;19932;-87
2023/11/24 09:19:11;;;;;;;;;;;;;;;-144.99;100.00;67352.69;5056020;28;19917;-87
2023/11/24 09:21:37;;;;;;;;;;;;;;;-144.99;100.00;67352.69;5029383;28;20037;-87
2023/11/24 09:24:02;;;;;;;;;;;;;;;-144.99;100.00;67352.69;5039864;28;20498;-86
2023/11/24 09:26:30;;;;;;;;;;;;;;;-144.99;100.00;67352.69;5027929;28;20002;-87
2023/11/24 09:28:56;;;;;;;;;;;;;;;-144.99;100.00;67352.69;5012542;28;19921;-87
2023/11/24 09:31:24;;;;;;;;;;;;;;;-144.99;100.00;67352.69;5027398;28;20457;-86
2023/11/24 09:33:51;;;;;;;;;;;;;;;-144.99;100.00;67352.69;5027314;28;19923;-86
2023/11/24 09:36:16;;;;;;;;;;;;;;;-144.99;100.00;67352.69;5010132;28;19917;-87
2023/11/24 09:38:49;;;;;;;;;;;;;;;-144.99;100.00;67352.69;5034095;28;20008;-86
2023/11/24 09:41:15;;;;;;;;;;;;;;;-144.99;100.00;67352.69;5033509;28;19913;-86
2023/11/24 09:43:40;;;;;;;;;;;;;;;-144.99;100.00;67352.69;5035487;28;19952;-86
2023/11/24 09:46:07;;;;;;;;;;;;;;;-144.99;100.00;67352.69;5012620;28;19913;-87
2023/11/24 09:48:33;;;;;;;;;;;;;;;-144.99;100.00;67352.69;5027214;28;19917;-87
2023/11/24 09:51:00;;;;;;;;;;;;;;;-144.99;100.00;67352.69;5013830;28;19913;-87
2023/11/24 09:53:26;;;;;;;;;;;;;;;-144.99;100.00;67352.69;5035772;28;20346;-87
2023/11/24 09:55:59;;;;;;;;;;;;;;;-144.99;100.00;67352.69;5017903;28;19913;-86
2023/11/24 09:58:25;;;;;;;;;;;;;;;-144.99;100.00;67352.69;5017606;28;19927;-86
2023/11/24 10:00:55;;;;;;;;;;;;;;;-144.99;100.00;67352.69;5019480;28;19964;-87
2023/11/24 10:03:23;;;;;;;;;;;;;;;-144.99;100.00;67352.69;5015087;28;20239;-86
2023/11/24 10:05:51;;;;;;;;;;;;;;;-144.99;100.00;67352.69;5016588;28;20306;-87
2023/11/24 10:08:17;;;;;;;;;;;;;;;-144.99;100.00;67352.69;5016273;28;20012;-87
2023/11/24 10:10:49;;;;;;;;;;;;;;;-144.99;100.00;67352.69;5018617;28;19917;-86
2023/11/24 10:13:14;;;;;;;;;;;;;;;-144.99;100.00;67352.69;5035939;28;20004;-87
2023/11/24 10:15:40;;;;;;;;;;;;;;;-144.99;100.00;67352.69;5018122;28;19967;-86
2023/11/24 10:18:07;;;;;;;;;;;;;;;-144.99;100.00;67352.69;5016758;28;19913;-86
2023/11/24 10:20:35;;;;;;;;;;;;;;;-144.99;100.00;67352.69;5011371;28;19913;-86
2023/11/24 10:23:00;;;;;;;;;;;;;;;-144.99;100.00;67352.69;5017376;28;19923;-87
2023/11/24 10:25:48;;;;;;;;;;;;;;;-144.99;100.00;67352.69;5007242;28;19905;-92
2023/11/24 10:28:37;;;;;;;;;;;;;;;;;;;;;
2023/11/24 10:34:01;;;;;;;;;;;;;;;-144.99;100.00;67352.69;5024185;28;19917;-92
2023/11/24 10:36:32;;;;;;;;;;;;;;;-144.99;100.00;67352.69;5007458;28;20390;-92
2023/11/24 10:39:10;;;;;;;;;;;;;;;-144.99;100.00;67352.69;5003450;28;20265;-92
2023/11/24 10:41:51;;;;;;;;;;;;;;;;;;;;;
2023/11/24 10:44:18;;;;;;;;;;;;;;;-144.99;100.00;67352.69;5018416;28;20375;-92
2023/11/24 10:46:47;;;;;;;;;;;;;;;-144.99;100.00;67352.69;5008608;28;19913;-91
2023/11/24 10:49:19;;;;;;;;;;;;;;;-144.99;100.00;67352.69;5008128;28;19923;-90
2023/11/24 10:51:54;;;;;;;;;;;;;;;-144.99;100.00;67352.69;5012956;28;20287;-88
2023/11/24 10:54:25;;;;;;;;;;;;;;;-144.99;100.00;67352.69;5008461;28;19949;-86
2023/11/24 10:56:55;;;;;;;;;;;;;;;-144.99;100.00;67352.69;5008023;28;20277;-89
2023/11/24 10:59:26;;;;;;;;;;;;;;;-144.99;100.00;67352.69;5005380;28;19913;-89
2023/11/24 11:01:57;;;;;;;;;;;;;;;-144.99;100.00;67352.69;5016639;28;19917;-87
2023/11/24 11:04:23;;;;;;;;;;;;;;;-144.99;100.00;67352.69;5016966;28;20001;-88
2023/11/24 11:07:07;;;;;;;;;;;;;;;-144.99;100.00;67352.69;5015843;28;19929;-87
2023/11/24 11:09:58;;;;;;;;;;;;;;;-144.99;100.00;67352.69;5036158;28;20010;-87
2023/11/24 11:12:30;;;;;;;;;;;;;;;-144.99;100.00;67352.69;5017602;28;20008;-87
2023/11/24 11:14:56;;;;;;;;;;;;;;;-144.99;100.00;67352.69;5017189;28;19917;-89
2023/11/24 11:17:25;;;;;;;;;;;;;;;-144.99;100.00;67352.69;5015894;28;19917;-88
2023/11/24 11:20:00;;;;;;;;;;;;;;;-144.99;100.00;67352.69;5031541;28;20291;-86
2023/11/24 11:22:29;;;;;;;;;;;;;;;-144.99;100.00;67352.69;5018544;28;19920;-87
2023/11/24 11:25:01;;;;;;;;;;;;;;;-144.99;100.00;67352.69;5020602;28;20397;-87
2023/11/24 11:27:26;;;;;;;;;;;;;;;-144.99;100.00;67352.69;5015801;28;19917;-87
2023/11/24 11:29:53;;;;;;;;;;;;;;;-144.99;100.00;67352.69;5036331;28;20023;-87
2023/11/24 11:32:18;;;;;;;;;;;;;;;-144.99;100.00;67352.69;5012710;28;19913;-85
2023/11/24 11:34:44;;;;;;;;;;;;;;;-144.99;100.00;67352.69;5015782;28;19914;-85
2023/11/24 11:37:13;;;;;;;;;;;;;;;-144.99;100.00;67352.69;5033887;28;21315;-85
2023/11/24 11:39:59;;;;;;;;;;;;;;;-144.99;100.00;67352.69;5010269;28;19914;-88
2023/11/24 11:42:31;;;;;;;;;;;;;;;-144.99;100.00;67352.69;5012860;28;19932;-87
2023/11/24 11:45:03;;;;;;;;;;;;;;;-144.99;100.00;67352.69;5010163;28;20285;-86
2023/11/24 11:47:29;;;;;;;;;;;;;;;-144.99;100.00;67352.69;5017309;28;20458;-86
2023/11/24 11:49:55;;;;;;;;;;;;;;;-144.99;100.00;67352.69;5030731;28;19917;-86
2023/11/24 11:52:21;;;;;;;;;;;;;;;-144.99;100.00;67352.69;5035935;28;20320;-87
2023/11/24 11:54:48;;;;;;;;;;;;;;;-144.99;100.00;67352.69;5036211;28;20331;-87
2023/11/24 11:57:13;;;;;;;;;;;;;;;-144.99;100.00;67352.69;5017327;28;19920;-87
2023/11/24 11:59:39;;;;;;;;;;;;;;;-144.99;100.00;67352.69;5018309;28;19914;-86
2023/11/24 12:02:06;;;;;;;;;;;;;;;-144.99;100.00;67352.69;5017980;28;19948;-85
2023/11/24 12:04:32;;;;;;;;;;;;;;;-144.99;100.00;67352.69;5037629;28;19979;-85
2023/11/24 12:07:00;;;;;;;;;;;;;;;-144.99;100.00;67352.69;5035695;28;19913;-85
2023/11/24 12:09:25;;;;;;;;;;;;;;;-144.99;100.00;67352.69;5017789;28;19917;-85
2023/11/24 12:11:50;;;;;;;;;;;;;;;-144.99;100.00;67352.69;5018330;28;19924;-85
2023/11/24 12:14:15;;;;;;;;;;;;;;;-144.99;100.00;67352.69;5018576;28;19917;-83
2023/11/24 12:16:41;;;;;;;;;;;;;;;-144.99;100.00;67352.69;5036821;28;19924;-86
2023/11/24 12:19:13;;;;;;;;;;;;;;;-144.99;100.00;67352.69;5018573;28;19919;-85